Time;durP1;ratioP1;P1;durP2;ratioP2;P2;SDS_P1;SDS_P2;PMS_P1;PMS_P2;Temp;Humidity;BMP_temperature;BMP_pressure;BME280_temperature;BME280_humidity;BME280_pressure;Samples;Min_cycle;Max_cycle;Signal;HPM_P1;HPM_P2
2023/03/29 00:01:40;;;;;;;3.50;1.60;;;6.90;99.90;;;;;;6245362;23;20246;-83
2023/03/29 00:04:06;;;;;;;3.25;1.75;;;6.90;99.90;;;;;;6245372;23;20212;-83
2023/03/29 00:06:32;;;;;;;2.73;1.70;;;6.70;99.90;;;;;;6233666;23;20180;-83
2023/03/29 00:08:59;;;;;;;2.10;1.60;;;6.70;99.90;;;;;;6242588;23;20748;-84
2023/03/29 00:11:26;;;;;;;1.95;1.73;;;6.70;99.90;;;;;;6241077;23;20176;-83
2023/03/29 00:13:51;;;;;;;3.05;1.80;;;6.70;99.90;;;;;;6242230;23;20214;-83
2023/03/29 00:16:17;;;;;;;3.53;1.83;;;6.60;99.90;;;;;;6242792;23;20332;-84
2023/03/29 00:18:44;;;;;;;2.20;1.50;;;6.60;99.90;;;;;;6242287;23;20693;-84
2023/03/29 00:21:10;;;;;;;4.68;1.50;;;6.60;99.90;;;;;;6238637;23;20260;-83
2023/03/29 00:23:36;;;;;;;2.53;1.75;;;6.60;99.90;;;;;;6238022;23;20833;-84
2023/03/29 00:26:01;;;;;;;4.37;2.10;;;6.60;99.90;;;;;;6240939;23;20159;-83
2023/03/29 00:28:27;;;;;;;1.50;1.30;;;6.70;99.90;;;;;;6244991;23;20144;-83
2023/03/29 00:30:53;;;;;;;2.60;2.00;;;6.70;99.90;;;;;;6243397;23;20199;-83
2023/03/29 00:33:22;;;;;;;5.00;2.00;;;6.80;99.90;;;;;;6243973;23;20160;-83
2023/03/29 00:35:47;;;;;;;2.67;1.45;;;6.90;99.90;;;;;;6239072;23;20160;-84
2023/03/29 00:38:17;;;;;;;2.80;1.90;;;7.00;99.90;;;;;;6238408;23;20749;-83
2023/03/29 00:40:45;;;;;;;3.72;2.13;;;6.90;99.90;;;;;;6241323;23;20180;-83
2023/03/29 00:43:12;;;;;;;2.20;1.90;;;6.80;99.90;;;;;;6253505;23;20179;-84
2023/03/29 00:45:39;;;;;;;2.30;1.40;;;6.80;99.90;;;;;;6248412;23;20148;-83
2023/03/29 00:48:14;;;;;;;1.52;1.42;;;6.80;99.90;;;;;;6244221;23;20152;-84
2023/03/29 00:50:47;;;;;;;3.25;2.28;;;6.60;99.90;;;;;;6250462;23;20175;-83
2023/03/29 00:53:20;;;;;;;2.50;1.60;;;6.60;99.90;;;;;;6251348;23;20947;-84
2023/03/29 00:56:04;;;;;;;3.25;1.48;;;6.50;99.90;;;;;;6241292;23;20235;-84
2023/03/29 00:58:37;;;;;;;2.53;1.55;;;6.60;99.90;;;;;;6242807;23;20880;-84
2023/03/29 01:01:14;;;;;;;2.45;1.98;;;6.50;99.90;;;;;;6230546;23;20176;-84
2023/03/29 01:03:48;;;;;;;4.57;1.73;;;6.50;99.90;;;;;;6238939;23;20267;-85
2023/03/29 01:06:17;;;;;;;3.22;1.85;;;6.50;99.90;;;;;;6236189;23;20226;-84
2023/03/29 01:08:52;;;;;;;2.80;1.80;;;6.50;99.90;;;;;;6241138;22;21022;-84
2023/03/29 01:11:23;;;;;;;6.45;1.55;;;6.50;99.90;;;;;;6238287;23;20510;-84
2023/03/29 01:14:01;;;;;;;2.47;1.25;;;6.30;99.90;;;;;;6240026;23;20178;-83
2023/03/29 01:16:29;;;;;;;2.22;1.35;;;6.30;99.90;;;;;;6241141;23;20191;-84
2023/03/29 01:18:57;;;;;;;6.43;1.40;;;6.30;99.90;;;;;;6241776;23;20239;-84
2023/03/29 01:21:48;;;;;;;5.82;1.65;;;6.30;99.90;;;;;;6244369;23;20172;-84
2023/03/29 01:24:44;;;;;;;2.50;0.90;;;6.30;99.90;;;;;;6249583;22;20145;-84
2023/03/29 01:27:21;;;;;;;2.00;1.48;;;6.20;99.90;;;;;;6203255;23;20508;-84
2023/03/29 01:29:53;;;;;;;1.67;1.20;;;6.10;99.90;;;;;;6242750;23;20152;-85
2023/03/29 01:33:07;;;;;;;2.78;1.50;;;6.10;99.90;;;;;;6237809;23;20511;-86
2023/03/29 01:36:06;;;;;;;6.05;1.45;;;6.10;99.90;;;;;;6239323;23;20492;-85
2023/03/29 01:38:45;;;;;;;2.75;1.80;;;6.10;99.90;;;;;;6240120;23;20644;-85
2023/03/29 01:41:11;;;;;;;3.33;1.90;;;6.10;99.90;;;;;;6241420;23;20190;-85
2023/03/29 01:43:49;;;;;;;1.83;1.10;;;6.10;99.90;;;;;;6238813;23;20207;-85
2023/03/29 01:46:29;;;;;;;2.88;1.70;;;6.10;99.90;;;;;;6241716;23;20168;-85
2023/03/29 01:49:02;;;;;;;1.75;1.50;;;6.10;99.90;;;;;;6245209;23;20156;-85
2023/03/29 01:51:47;;;;;;;1.63;1.50;;;6.20;99.90;;;;;;6244284;23;20650;-85
2023/03/29 01:54:18;;;;;;;2.90;1.50;;;6.20;99.90;;;;;;6243246;23;20153;-85
2023/03/29 01:56:47;;;;;;;10.05;2.72;;;6.20;99.90;;;;;;6244392;23;20156;-84
2023/03/29 01:59:19;;;;;;;2.10;1.60;;;6.20;99.90;;;;;;6244080;23;20155;-85
2023/03/29 02:01:52;;;;;;;2.05;1.70;;;6.10;99.90;;;;;;6245806;23;20210;-84
2023/03/29 02:04:25;;;;;;;2.00;1.40;;;6.10;99.90;;;;;;6250778;23;20204;-84
2023/03/29 02:06:53;;;;;;;2.53;1.67;;;6.20;99.90;;;;;;6251207;23;20172;-84
2023/03/29 02:09:19;;;;;;;1.90;1.52;;;6.10;99.90;;;;;;6252174;23;20152;-84
2023/03/29 02:11:46;;;;;;;3.50;2.45;;;6.10;99.90;;;;;;6241394;23;20190;-84
2023/03/29 02:14:12;;;;;;;2.63;2.08;;;6.10;99.90;;;;;;6242231;23;20163;-84
2023/03/29 02:16:39;;;;;;;2.58;1.60;;;6.10;99.90;;;;;;6237735;23;20175;-84
2023/03/29 02:19:06;;;;;;;3.88;1.85;;;6.10;99.90;;;;;;6241594;23;20176;-84
2023/03/29 02:21:46;;;;;;;6.20;3.03;;;6.00;99.90;;;;;;6242376;23;20758;-84
2023/03/29 02:24:16;;;;;;;2.40;1.90;;;6.00;99.90;;;;;;6239450;23;20180;-84
2023/03/29 02:26:42;;;;;;;3.83;2.78;;;6.00;99.90;;;;;;6240645;23;20156;-84
2023/03/29 02:29:08;;;;;;;3.43;1.90;;;5.90;99.90;;;;;;6240340;23;20838;-85
2023/03/29 02:31:57;;;;;;;5.33;2.37;;;5.90;99.90;;;;;;6238847;22;20204;-85
2023/03/29 02:34:28;;;;;;;4.75;3.67;;;5.90;99.90;;;;;;6247607;23;20176;-85
2023/03/29 02:37:02;;;;;;;8.50;2.92;;;5.90;99.90;;;;;;6253602;23;20332;-84
2023/03/29 02:39:30;;;;;;;4.53;1.85;;;5.90;99.90;;;;;;6244805;23;20214;-84
2023/03/29 02:41:56;;;;;;;2.95;2.10;;;5.80;99.90;;;;;;6241790;23;20259;-84
2023/03/29 02:44:28;;;;;;;3.65;1.73;;;5.80;99.90;;;;;;6243522;23;20163;-84
2023/03/29 02:46:58;;;;;;;3.08;1.90;;;5.90;99.90;;;;;;6243370;23;20626;-84
2023/03/29 02:49:24;;;;;;;4.95;2.40;;;5.90;99.90;;;;;;6245031;23;20144;-84
2023/03/29 02:51:53;;;;;;;4.70;2.10;;;5.90;99.90;;;;;;6245166;23;20752;-85
2023/03/29 02:54:24;;;;;;;3.10;2.13;;;6.00;99.90;;;;;;6243556;22;20235;-84
2023/03/29 02:57:05;;;;;;;3.60;2.10;;;6.00;99.90;;;;;;6242732;23;20270;-83
2023/03/29 02:59:32;;;;;;;3.25;2.15;;;6.00;99.90;;;;;;6245172;23;20132;-83
2023/03/29 03:01:58;;;;;;;10.70;3.80;;;6.00;99.90;;;;;;6239922;23;20180;-83
2023/03/29 03:04:24;;;;;;;4.73;3.40;;;6.10;99.90;;;;;;6243390;23;20171;-84
2023/03/29 03:06:50;;;;;;;2.70;1.92;;;6.10;99.90;;;;;;6242005;23;20387;-84
2023/03/29 03:09:17;;;;;;;3.00;2.50;;;6.10;99.90;;;;;;6236378;23;20149;-84
2023/03/29 03:11:42;;;;;;;4.50;2.30;;;6.00;99.90;;;;;;6241166;23;20630;-84
2023/03/29 03:14:08;;;;;;;140.90;61.70;;;5.90;99.90;;;;;;6241715;23;20172;-84
2023/03/29 03:16:34;;;;;;;19.27;10.37;;;6.00;99.90;;;;;;6244994;23;20167;-84
2023/03/29 03:18:59;;;;;;;15.90;7.80;;;6.10;99.90;;;;;;6242755;23;20183;-83
2023/03/29 03:21:27;;;;;;;8.20;4.93;;;6.20;99.90;;;;;;6246269;23;20236;-84
2023/03/29 03:23:53;;;;;;;4.70;3.13;;;6.20;99.90;;;;;;6246776;23;20160;-83
2023/03/29 03:26:19;;;;;;;3.28;2.53;;;6.30;99.90;;;;;;6250570;23;20184;-84
2023/03/29 03:28:45;;;;;;;4.07;2.53;;;6.20;99.90;;;;;;6247726;23;20161;-83
2023/03/29 03:31:12;;;;;;;2.67;2.00;;;6.20;99.90;;;;;;6258641;23;20153;-83
2023/03/29 03:33:39;;;;;;;3.85;2.10;;;6.20;99.90;;;;;;6247630;23;20160;-84
2023/03/29 03:36:07;;;;;;;2.05;1.83;;;6.20;99.90;;;;;;6245649;23;20145;-83
2023/03/29 03:38:32;;;;;;;2.22;1.67;;;6.30;99.90;;;;;;6246640;23;20152;-84
2023/03/29 03:41:00;;;;;;;4.57;2.70;;;6.20;99.90;;;;;;6242483;23;20202;-83
2023/03/29 03:43:26;;;;;;;5.15;2.50;;;6.20;99.90;;;;;;6244485;23;20172;-83
2023/03/29 03:45:56;;;;;;;8.57;2.72;;;6.20;99.90;;;;;;6242686;23;20157;-83
2023/03/29 03:48:23;;;;;;;3.28;1.48;;;6.10;99.90;;;;;;6253782;22;20533;-84
2023/03/29 03:50:51;;;;;;;2.80;2.08;;;6.10;99.90;;;;;;6246777;23;20215;-83
2023/03/29 03:53:17;;;;;;;6.00;3.28;;;6.10;99.90;;;;;;6244431;23;20152;-83
2023/03/29 03:55:48;;;;;;;2.85;2.50;;;6.10;99.90;;;;;;6243575;23;20157;-83
2023/03/29 03:58:13;;;;;;;3.47;2.45;;;6.20;99.90;;;;;;6244680;23;20145;-83
2023/03/29 04:00:39;;;;;;;4.60;2.73;;;6.20;99.90;;;;;;6240262;23;20222;-83
2023/03/29 04:03:04;;;;;;;2.70;2.13;;;6.30;99.90;;;;;;6243997;23;20223;-83
2023/03/29 04:05:30;;;;;;;5.30;3.00;;;6.40;99.90;;;;;;6242716;23;20757;-84
2023/03/29 04:07:56;;;;;;;5.13;3.00;;;6.40;99.90;;;;;;6244884;23;20144;-83
2023/03/29 04:10:21;;;;;;;3.53;2.20;;;6.40;99.90;;;;;;6241721;23;20152;-84
2023/03/29 04:12:47;;;;;;;2.67;2.27;;;6.50;99.90;;;;;;6243914;23;20149;-84
2023/03/29 04:15:12;;;;;;;3.20;2.50;;;6.40;99.90;;;;;;6242734;23;20156;-84
2023/03/29 04:17:38;;;;;;;3.53;2.40;;;6.50;99.90;;;;;;6241180;23;20176;-83
2023/03/29 04:20:11;;;;;;;8.80;4.70;;;6.50;99.90;;;;;;6243336;23;20149;-82
2023/03/29 04:22:38;;;;;;;4.53;2.80;;;6.50;99.90;;;;;;6241198;23;20168;-83
2023/03/29 04:25:05;;;;;;;9.65;4.40;;;6.50;99.90;;;;;;6242447;23;20144;-82
2023/03/29 04:27:31;;;;;;;5.15;2.97;;;6.50;99.90;;;;;;6244034;23;20203;-84
2023/03/29 04:29:57;;;;;;;7.70;5.80;;;6.40;99.90;;;;;;6239612;22;20247;-84
2023/03/29 04:32:23;;;;;;;8.67;5.23;;;6.50;99.90;;;;;;6224413;23;20148;-88
2023/03/29 04:34:49;;;;;;;12.40;4.50;;;6.50;99.90;;;;;;6223295;23;20176;-87
2023/03/29 04:37:20;;;;;;;4.50;3.20;;;6.60;99.90;;;;;;6221749;23;20152;-82
2023/03/29 04:39:47;;;;;;;7.65;3.20;;;6.60;99.90;;;;;;6264303;22;20171;-82
2023/03/29 04:42:13;;;;;;;8.32;4.72;;;7.40;99.90;;;;;;6283118;22;20238;-83
2023/03/29 04:44:40;;;;;;;6.80;4.13;;;6.60;99.90;;;;;;6255238;22;20152;-83
2023/03/29 04:47:05;;;;;;;8.43;3.80;;;6.70;99.90;;;;;;6256485;22;20152;-84
2023/03/29 04:49:31;;;;;;;6.17;3.53;;;6.80;99.90;;;;;;6281565;22;20148;-84
2023/03/29 04:51:56;;;;;;;3.00;2.20;;;6.80;99.90;;;;;;6280489;22;20164;-87
2023/03/29 04:54:22;;;;;;;2.67;2.40;;;6.90;99.90;;;;;;6249364;22;20513;-84
2023/03/29 04:56:47;;;;;;;2.77;1.97;;;6.80;99.90;;;;;;6253952;22;20164;-84
2023/03/29 05:01:47;;;;;;;3.80;2.40;;;6.70;99.90;;;;;;6267304;22;20199;-83
2023/03/29 05:04:13;;;;;;;6.63;2.87;;;6.70;99.90;;;;;;6240040;22;20190;-81
2023/03/29 05:06:39;;;;;;;8.77;2.83;;;6.60;99.90;;;;;;6242053;22;20214;-85
2023/03/29 05:09:05;;;;;;;19.42;4.00;;;6.70;99.90;;;;;;6242449;22;20148;-83
2023/03/29 05:11:32;;;;;;;4.73;3.00;;;6.70;99.90;;;;;;6244103;22;20722;-81
2023/03/29 05:14:01;;;;;;;5.25;3.60;;;6.90;99.90;;;;;;6243038;22;20375;-84
2023/03/29 05:16:28;;;;;;;3.65;2.70;;;7.00;99.90;;;;;;6243874;22;20152;-83
2023/03/29 05:18:57;;;;;;;5.97;2.10;;;7.20;99.90;;;;;;6244414;22;20163;-85
2023/03/29 05:21:24;;;;;;;4.63;1.83;;;7.20;99.90;;;;;;6244805;22;20644;-84
2023/03/29 05:23:51;;;;;;;1.63;1.50;;;7.10;99.90;;;;;;6241343;22;20865;-82
2023/03/29 05:26:16;;;;;;;5.30;1.88;;;6.90;99.90;;;;;;6239678;22;20222;-86
2023/03/29 05:28:42;;;;;;;2.03;1.47;;;6.80;99.90;;;;;;6241053;22;20151;-83
2023/03/29 05:31:09;;;;;;;2.50;1.30;;;6.70;99.90;;;;;;6241408;22;20251;-83
2023/03/29 05:33:35;;;;;;;2.28;1.85;;;6.70;99.90;;;;;;6273216;22;20520;-85
2023/03/29 05:36:06;;;;;;;2.95;1.75;;;8.90;99.90;;;;;;6238725;22;20156;-82
2023/03/29 05:38:33;;;;;;;1.67;1.48;;;6.70;99.90;;;;;;6238984;22;20290;-83
2023/03/29 05:40:59;;;;;;;7.35;1.73;;;7.10;99.90;;;;;;6236773;22;20183;-82
2023/03/29 05:43:25;;;;;;;6.47;1.95;;;6.70;99.90;;;;;;6237858;22;20180;-82
2023/03/29 05:45:55;;;;;;;2.78;1.90;;;6.80;99.90;;;;;;6238165;22;20642;-84
2023/03/29 05:48:22;;;;;;;3.47;2.00;;;6.80;99.90;;;;;;6238677;22;20156;-81
2023/03/29 05:50:49;;;;;;;2.80;2.00;;;6.90;99.90;;;;;;6266572;22;20222;-86
2023/03/29 05:53:16;;;;;;;2.47;2.25;;;7.00;99.90;;;;;;6239323;22;20156;-82
2023/03/29 05:55:42;;;;;;;3.20;1.70;;;7.20;99.90;;;;;;6238642;22;20151;-83
2023/03/29 05:58:09;;;;;;;5.40;2.00;;;7.30;99.90;;;;;;6239863;22;20172;-84
2023/03/29 06:00:36;;;;;;;3.08;1.90;;;7.30;99.90;;;;;;6252798;22;20183;-81
2023/03/29 06:03:02;;;;;;;2.13;1.80;;;7.40;99.90;;;;;;6257033;22;20184;-83
2023/03/29 06:05:28;;;;;;;2.83;2.05;;;7.40;99.90;;;;;;6252343;22;20156;-84
2023/03/29 06:07:56;;;;;;;4.70;1.70;;;7.40;99.90;;;;;;6237559;23;20160;-82
2023/03/29 06:10:23;;;;;;;3.25;1.80;;;7.50;99.90;;;;;;6238019;23;20176;-84
2023/03/29 06:12:49;;;;;;;5.30;2.70;;;7.60;99.90;;;;;;6237541;23;20774;-86
2023/03/29 06:15:15;;;;;;;4.55;2.10;;;7.70;99.90;;;;;;6237499;22;20137;-82
2023/03/29 06:17:43;;;;;;;3.72;2.72;;;7.90;99.90;;;;;;6232732;23;20247;-85
2023/03/29 06:20:09;;;;;;;2.17;1.80;;;8.10;99.90;;;;;;6238199;23;20275;-82
2023/03/29 06:22:40;;;;;;;2.38;1.40;;;8.10;99.90;;;;;;6239827;22;20176;-82
2023/03/29 06:25:08;;;;;;;4.28;2.70;;;8.20;99.90;;;;;;6241852;22;20857;-80
2023/03/29 06:27:34;;;;;;;3.45;2.47;;;8.30;99.90;;;;;;6254433;23;20251;-79
2023/03/29 06:30:00;;;;;;;2.67;1.60;;;8.20;99.90;;;;;;6244966;23;20188;-83
2023/03/29 06:32:26;;;;;;;2.70;1.75;;;8.30;99.90;;;;;;6234757;23;20395;-85
2023/03/29 06:34:53;;;;;;;2.15;1.40;;;8.40;99.90;;;;;;6241069;22;20156;-81
2023/03/29 06:37:20;;;;;;;3.90;1.80;;;8.40;99.90;;;;;;6238274;23;20168;-82
2023/03/29 06:39:51;;;;;;;4.28;2.35;;;8.50;99.90;;;;;;6239589;23;20180;-83
2023/03/29 06:42:17;;;;;;;4.28;1.67;;;;;;;;;;6237220;23;20330;-84
2023/03/29 06:44:42;;;;;;;2.90;2.20;;;8.60;99.90;;;;;;6240121;23;20602;-84
2023/03/29 06:47:08;;;;;;;3.00;2.27;;;8.50;99.90;;;;;;6238271;23;20368;-82
2023/03/29 06:49:34;;;;;;;2.87;1.80;;;8.60;99.90;;;;;;6238926;23;20180;-82
2023/03/29 06:52:00;;;;;;;3.33;1.50;;;;;;;;;;6241765;22;20311;-81
2023/03/29 06:54:25;;;;;;;4.00;1.70;;;8.70;99.90;;;;;;6239977;23;20229;-83
2023/03/29 06:56:51;;;;;;;2.40;2.20;;;8.80;99.90;;;;;;6240433;23;20426;-84
2023/03/29 06:59:17;;;;;;;1.90;1.40;;;8.90;99.90;;;;;;6243545;23;20163;-82
2023/03/29 07:01:43;;;;;;;5.43;1.63;;;9.10;99.90;;;;;;6238910;23;20202;-85
2023/03/29 07:04:09;;;;;;;5.65;1.60;;;9.10;99.90;;;;;;6235133;23;20155;-83
2023/03/29 07:06:37;;;;;;;2.15;1.83;;;9.10;99.90;;;;;;6234797;23;20159;-82
2023/03/29 07:09:05;;;;;;;3.83;2.30;;;9.20;99.90;;;;;;6232715;23;20152;-83
2023/03/29 07:11:34;;;;;;;4.13;2.05;;;9.10;99.90;;;;;;6234808;23;20176;-88
2023/03/29 07:13:59;;;;;;;2.45;1.80;;;9.20;99.90;;;;;;6238782;22;20141;-79
2023/03/29 07:16:26;;;;;;;4.70;2.07;;;9.20;99.90;;;;;;6237675;23;20253;-82
2023/03/29 07:18:51;;;;;;;4.95;1.92;;;9.40;99.90;;;;;;6239427;22;20148;-84
2023/03/29 07:21:17;;;;;;;3.17;1.70;;;9.40;99.90;;;;;;6238651;23;20164;-83
2023/03/29 07:23:42;;;;;;;3.47;2.17;;;9.40;99.90;;;;;;6232291;23;20299;-82
2023/03/29 07:26:09;;;;;;;2.13;1.90;;;;;;;;;;6234040;23;20413;-84
2023/03/29 07:28:38;;;;;;;4.72;2.20;;;9.50;99.90;;;;;;6237657;22;20900;-85
2023/03/29 07:31:09;;;;;;;2.70;2.50;;;9.70;99.90;;;;;;6232409;23;20183;-82
2023/03/29 07:33:36;;;;;;;4.60;2.20;;;9.70;99.90;;;;;;6237640;23;20226;-85
2023/03/29 07:36:03;;;;;;;2.17;1.85;;;9.80;99.90;;;;;;6230958;23;21171;-86
2023/03/29 07:38:30;;;;;;;2.25;1.90;;;9.90;99.90;;;;;;6234047;23;20586;-86
2023/03/29 07:40:56;;;;;;;2.35;1.85;;;9.90;99.90;;;;;;6237438;22;20283;-81
2023/03/29 07:43:22;;;;;;;2.67;2.10;;;;;;;;;;6234672;23;20254;-83
2023/03/29 07:45:49;;;;;;;2.90;1.95;;;9.80;99.90;;;;;;6237106;23;20739;-83
2023/03/29 07:48:16;;;;;;;3.35;1.95;;;9.70;99.90;;;;;;6234781;23;20153;-84
2023/03/29 07:50:42;;;;;;;4.22;1.83;;;;;;;;;;6234291;23;20168;-84
2023/03/29 07:53:08;;;;;;;2.30;1.63;;;;;;;;;;6236706;22;20248;-84
2023/03/29 07:55:33;;;;;;;3.60;1.83;;;9.70;99.90;;;;;;6235710;23;20179;-82
2023/03/29 07:58:00;;;;;;;6.43;1.77;;;9.70;99.90;;;;;;6236821;23;20407;-84
2023/03/29 08:00:26;;;;;;;2.55;1.70;;;9.80;99.90;;;;;;6234613;22;20200;-83
2023/03/29 08:02:52;;;;;;;4.18;1.50;;;9.70;99.90;;;;;;6234210;22;20183;-84
2023/03/29 08:05:20;;;;;;;2.70;1.80;;;9.80;99.90;;;;;;6233352;23;20149;-83
2023/03/29 08:07:47;;;;;;;1.60;1.50;;;9.90;99.90;;;;;;6227389;22;20387;-83
2023/03/29 08:10:19;;;;;;;5.05;2.00;;;10.20;99.90;;;;;;6236837;23;20172;-83
2023/03/29 08:12:46;;;;;;;4.78;1.67;;;10.40;99.90;;;;;;6236726;23;20226;-82
2023/03/29 08:15:12;;;;;;;2.78;1.63;;;10.50;99.90;;;;;;6236117;23;20156;-80
2023/03/29 08:17:38;;;;;;;2.30;2.07;;;10.70;99.90;;;;;;6237210;23;20662;-84
2023/03/29 08:20:05;;;;;;;4.43;1.58;;;10.90;99.90;;;;;;6237030;23;20921;-84
2023/03/29 08:22:32;;;;;;;1.92;1.73;;;11.00;99.90;;;;;;6237617;22;20164;-83
2023/03/29 08:24:58;;;;;;;3.58;2.00;;;11.10;99.90;;;;;;6239565;23;20156;-83
2023/03/29 08:27:24;;;;;;;4.30;2.10;;;12.50;99.90;;;;;;6240101;22;20140;-83
2023/03/29 08:29:50;;;;;;;12.73;2.40;;;;;;;;;;6237998;23;20190;-86
2023/03/29 08:32:16;;;;;;;5.28;2.13;;;11.00;99.90;;;;;;6237553;23;20410;-84
2023/03/29 08:34:42;;;;;;;8.70;2.10;;;;;;;;;;6243678;22;20145;-81
2023/03/29 08:37:09;;;;;;;2.78;1.85;;;;;;;;;;6257326;23;20406;-83
2023/03/29 08:39:36;;;;;;;5.35;2.35;;;11.10;99.90;;;;;;6253415;23;20160;-82
2023/03/29 08:42:33;;;;;;;3.25;1.80;;;11.10;99.90;;;;;;6235047;23;20176;-82
2023/03/29 08:45:15;;;;;;;4.05;1.30;;;11.00;99.90;;;;;;6239747;22;20141;-82
2023/03/29 08:47:54;;;;;;;4.65;1.50;;;11.20;99.90;;;;;;6238776;23;20745;-83
2023/03/29 08:50:25;;;;;;;2.70;1.83;;;11.40;99.90;;;;;;6240507;23;20967;-85
2023/03/29 08:52:56;;;;;;;3.25;1.52;;;11.50;99.90;;;;;;6239600;22;20149;-81
2023/03/29 08:55:40;;;;;;;2.05;1.35;;;11.40;99.90;;;;;;6239906;23;20187;-83
2023/03/29 08:58:10;;;;;;;4.35;1.75;;;11.50;99.90;;;;;;6238409;23;20148;-83
2023/03/29 09:00:43;;;;;;;5.88;1.85;;;11.30;99.90;;;;;;6257254;22;20187;-84
2023/03/29 09:03:27;;;;;;;4.70;1.95;;;11.50;99.90;;;;;;6244005;22;20183;-82
2023/03/29 09:06:08;;;;;;;24.40;13.15;;;11.60;99.90;;;;;;6268858;22;20171;-82
2023/03/29 09:08:40;;;;;;;2.20;1.45;;;12.00;99.90;;;;;;6261704;22;20152;-81
2023/03/29 09:11:08;;;;;;;2.53;1.65;;;12.30;99.90;;;;;;6243035;22;20172;-82
2023/03/29 09:14:00;;;;;;;7.15;1.80;;;12.60;99.90;;;;;;6270871;22;20147;-84
2023/03/29 09:16:53;;;;;;;3.45;1.95;;;13.00;99.90;;;;;;6271471;22;20143;-83
2023/03/29 09:19:31;;;;;;;2.45;1.23;;;13.20;99.90;;;;;;6245289;22;20166;-85
2023/03/29 09:22:16;;;;;;;2.33;1.45;;;13.50;99.90;;;;;;6288224;22;20168;-82
2023/03/29 09:25:07;;;;;;;1.60;1.50;;;13.60;99.90;;;;;;6255306;22;20293;-81
2023/03/29 09:27:59;;;;;;;3.10;1.63;;;13.40;99.90;;;;;;6267322;22;20450;-78
2023/03/29 09:30:38;;;;;;;2.47;1.70;;;13.40;99.90;;;;;;6247054;22;20402;-83
2023/03/29 09:33:12;;;;;;;4.53;3.00;;;13.30;99.90;;;;;;6244181;22;20378;-86
2023/03/29 09:35:46;;;;;;;4.27;2.03;;;13.30;99.90;;;;;;6243577;22;20389;-84
2023/03/29 09:38:13;;;;;;;4.97;2.20;;;14.10;99.90;;;;;;6270663;22;20358;-85
2023/03/29 09:40:46;;;;;;;3.07;1.70;;;14.10;99.90;;;;;;6247275;22;20543;-84
2023/03/29 09:43:17;;;;;;;3.47;2.00;;;14.90;99.90;;;;;;6241965;22;20418;-85
2023/03/29 09:45:55;;;;;;;8.23;1.67;;;14.70;99.90;;;;;;6243782;22;20395;-83
2023/03/29 09:48:21;;;;;;;1.80;1.07;;;14.70;99.90;;;;;;6244469;22;20378;-81
2023/03/29 09:50:50;;;;;;;4.87;2.00;;;15.20;99.90;;;;;;6244080;22;20428;-82
2023/03/29 09:53:17;;;;;;;6.10;2.43;;;15.30;99.90;;;;;;6245675;22;20976;-84
2023/03/29 09:55:46;;;;;;;5.57;2.17;;;15.50;98.80;;;;;;6242848;22;20433;-80
2023/03/29 09:58:40;;;;;;;2.70;2.03;;;15.50;98.30;;;;;;6238250;22;20516;-80
2023/03/29 10:01:10;;;;;;;4.10;2.00;;;15.30;97.80;;;;;;6236525;22;20468;-84
2023/03/29 10:03:38;;;;;;;5.40;2.13;;;15.50;97.60;;;;;;6266891;22;20540;-84
2023/03/29 10:06:07;;;;;;;2.33;1.80;;;16.00;98.80;;;;;;6266725;22;20378;-82
2023/03/29 10:08:45;;;;;;;8.10;2.70;;;16.30;96.30;;;;;;6273659;22;20359;-83
2023/03/29 10:11:28;;;;;;;2.50;1.10;;;15.90;95.50;;;;;;6270043;22;20394;-86
2023/03/29 10:13:56;;;;;;;4.10;1.60;;;15.50;96.20;;;;;;6238949;22;20382;-80
2023/03/29 10:16:32;;;;;;;2.40;2.07;;;15.80;96.00;;;;;;6237704;22;20460;-82
2023/03/29 10:18:57;;;;;;;3.53;1.50;;;15.80;94.50;;;;;;6235903;22;20378;-81
2023/03/29 10:21:23;;;;;;;1.93;1.67;;;15.80;95.80;;;;;;6238085;22;20424;-84
2023/03/29 10:23:57;;;;;;;2.17;2.00;;;16.10;95.70;;;;;;6237719;22;20195;-83
2023/03/29 10:26:31;;;;;;;8.60;1.73;;;16.20;95.70;;;;;;6238276;22;20151;-86
2023/03/29 10:29:00;;;;;;;10.27;2.67;;;;;;;;;;6237767;22;20380;-84
2023/03/29 10:31:30;;;;;;;1.90;1.50;;;16.00;92.30;;;;;;6226685;23;20481;-81
2023/03/29 10:34:00;;;;;;;3.77;2.90;;;15.90;92.50;;;;;;6242393;23;20474;-83
2023/03/29 10:36:26;;;;;;;4.47;1.67;;;16.20;94.10;;;;;;6242484;23;20379;-81
2023/03/29 10:38:55;;;;;;;1.50;1.40;;;16.20;93.10;;;;;;6243897;23;20367;-78
2023/03/29 10:41:21;;;;;;;4.77;1.40;;;15.70;93.70;;;;;;6269230;22;20405;-80
2023/03/29 10:43:49;;;;;;;2.83;2.20;;;15.90;94.50;;;;;;6274633;22;20430;-82
2023/03/29 10:46:24;;;;;;;3.57;1.60;;;16.00;94.20;;;;;;6276201;22;20991;-86
2023/03/29 10:49:04;;;;;;;2.93;1.73;;;15.50;93.20;;;;;;6246179;22;21066;-82
2023/03/29 10:51:31;;;;;;;3.00;2.00;;;15.00;93.60;;;;;;6273699;22;20468;-84
2023/03/29 10:53:58;;;;;;;2.40;1.53;;;15.10;94.00;;;;;;6272694;22;20872;-81
2023/03/29 10:56:35;;;;;;;4.17;2.33;;;15.50;94.20;;;;;;6247886;22;20432;-82
2023/03/29 10:59:16;;;;;;;5.53;1.83;;;15.50;94.60;;;;;;6275179;22;20362;-83
2023/03/29 11:02:16;;;;;;;2.80;1.93;;;16.80;94.50;;;;;;6253025;22;20443;-82
2023/03/29 11:04:46;;;;;;;11.50;2.40;;;16.60;93.40;;;;;;6243820;23;20375;-85
2023/03/29 11:07:32;;;;;;;5.83;2.37;;;17.20;93.90;;;;;;6243140;23;20399;-82
2023/03/29 11:10:10;;;;;;;9.23;2.10;;;17.20;90.70;;;;;;6244886;22;20386;-85
2023/03/29 11:13:07;;;;;;;5.20;2.00;;;17.20;90.80;;;;;;6272179;22;20358;-84
2023/03/29 11:15:50;;;;;;;3.87;1.90;;;17.80;92.30;;;;;;6274900;22;20369;-84
2023/03/29 11:18:52;;;;;;;5.70;2.00;;;18.10;89.70;;;;;;6246958;22;20379;-86
2023/03/29 11:21:59;;;;;;;3.13;2.13;;;18.30;91.40;;;;;;6275477;22;20382;-84
2023/03/29 11:24:47;;;;;;;6.10;3.50;;;18.80;90.70;;;;;;6267073;22;20404;-84
2023/03/29 11:27:48;;;;;;;3.37;1.90;;;18.90;89.70;;;;;;6274323;22;20461;-83
2023/03/29 11:30:37;;;;;;;3.10;2.20;;;18.30;88.50;;;;;;6273199;22;20841;-83
2023/03/29 11:33:30;;;;;;;4.10;1.70;;;17.50;89.50;;;;;;6275308;22;20355;-84
2023/03/29 11:36:04;;;;;;;4.40;1.67;;;17.90;91.60;;;;;;6248151;22;20866;-83
2023/03/29 11:38:53;;;;;;;3.40;1.97;;;18.50;92.10;;;;;;6277749;22;20354;-84
2023/03/29 11:41:26;;;;;;;4.50;1.97;;;18.80;90.40;;;;;;6277478;22;20497;-84
2023/03/29 11:43:58;;;;;;;2.30;1.60;;;19.70;84.90;;;;;;6275030;22;20410;-84
2023/03/29 11:46:32;;;;;;;8.90;2.80;;;20.30;85.40;;;;;;6249451;22;20849;-83
2023/03/29 11:49:04;;;;;;;4.83;1.80;;;20.00;84.90;;;;;;6276291;22;20370;-84
2023/03/29 11:51:56;;;;;;;3.13;1.90;;;19.60;83.90;;;;;;6278427;22;20406;-84
2023/03/29 11:54:31;;;;;;;6.33;2.40;;;20.30;81.80;;;;;;6218932;22;20378;-85
2023/03/29 11:57:11;;;;;;;8.17;3.33;;;20.20;82.80;;;;;;6277915;22;20730;-84
2023/03/29 11:59:42;;;;;;;4.10;1.80;;;19.90;84.30;;;;;;6277614;22;20359;-84
2023/03/29 12:02:22;;;;;;;3.40;1.60;;;20.00;88.30;;;;;;6276025;22;20514;-84
2023/03/29 12:04:52;;;;;;;7.93;2.30;;;19.20;85.40;;;;;;6275563;22;20358;-83
2023/03/29 12:07:35;;;;;;;2.90;2.20;;;19.40;85.80;;;;;;6247981;22;20411;-84
2023/03/29 12:10:07;;;;;;;2.93;2.20;;;18.90;80.60;;;;;;6249520;22;20383;-84
2023/03/29 12:13:02;;;;;;;6.83;2.10;;;18.40;85.60;;;;;;6275129;22;20425;-85
2023/03/29 12:15:35;;;;;;;2.80;1.70;;;18.40;86.40;;;;;;6274260;22;20833;-84
2023/03/29 12:18:05;;;;;;;3.43;1.80;;;18.00;89.10;;;;;;6276816;22;20420;-84
2023/03/29 12:20:37;;;;;;;3.67;2.07;;;17.90;90.30;;;;;;6275103;22;20420;-83
2023/03/29 12:23:04;;;;;;;3.50;2.20;;;17.80;89.70;;;;;;6276539;22;20410;-85
2023/03/29 12:25:37;;;;;;;2.03;1.63;;;17.40;90.40;;;;;;6277224;22;20375;-83
2023/03/29 12:28:22;;;;;;;3.90;2.37;;;17.70;91.00;;;;;;6278584;22;20365;-83
2023/03/29 12:31:16;;;;;;;3.73;1.83;;;17.40;89.10;;;;;;6277221;22;20523;-84
2023/03/29 12:33:53;;;;;;;3.63;1.70;;;17.60;89.00;;;;;;6277303;22;20842;-84
2023/03/29 12:36:48;;;;;;;3.10;1.60;;;17.70;89.70;;;;;;6252618;22;20436;-84
2023/03/29 12:39:16;;;;;;;6.50;1.67;;;16.50;85.10;;;;;;6279699;22;20864;-85
2023/03/29 12:41:47;;;;;;;7.50;1.80;;;16.50;90.70;;;;;;6279513;22;20393;-85
2023/03/29 12:44:15;;;;;;;3.77;1.90;;;16.50;91.00;;;;;;6252089;22;20375;-83
2023/03/29 12:46:41;;;;;;;2.67;2.17;;;16.90;91.30;;;;;;6279248;22;20362;-83
2023/03/29 12:49:18;;;;;;;2.70;1.63;;;17.40;91.20;;;;;;6276665;22;20681;-84
2023/03/29 12:51:44;;;;;;;5.43;1.80;;;17.30;89.20;;;;;;6278322;22;20693;-84
2023/03/29 12:54:20;;;;;;;7.20;2.00;;;17.80;90.50;;;;;;6275217;22;20385;-85
2023/03/29 12:56:53;;;;;;;3.13;1.40;;;17.80;87.30;;;;;;6277024;22;20139;-83
2023/03/29 12:59:32;;;;;;;8.00;1.90;;;18.20;88.40;;;;;;6274730;22;20366;-84
2023/03/29 13:02:13;;;;;;;2.50;1.93;;;18.60;90.20;;;;;;6272286;22;20417;-83
2023/03/29 13:04:41;;;;;;;3.80;1.33;;;17.80;86.20;;;;;;6247018;22;20382;-84
2023/03/29 13:07:21;;;;;;;5.47;1.60;;;16.80;84.90;;;;;;6248623;22;20378;-84
2023/03/29 13:09:55;;;;;;;6.10;1.70;;;16.60;90.10;;;;;;6275302;22;20362;-83
2023/03/29 13:12:50;;;;;;;4.27;1.40;;;16.90;89.40;;;;;;6274859;22;20887;-83
2023/03/29 13:15:15;;;;;;;3.63;1.87;;;16.90;89.50;;;;;;6266720;22;20722;-84
2023/03/29 13:17:53;;;;;;;5.77;1.70;;;16.60;89.60;;;;;;6273242;22;20429;-84
2023/03/29 13:20:37;;;;;;;2.30;1.50;;;16.60;91.40;;;;;;6245952;22;20186;-83